DAH030 EDDM-EGSS
Flight info
| Callsign | DAH030 |
|---|---|
| Flight time | 1h 36m |
| Altitude | 38000 |
| Route | GIVMI Y101 IBAGA DCT MASEK DCT ARPEG DCT NOGRO M40 RINIS |
| Aircraft | A320/M-SDE3FGHIRWY/LB1 |
Departure
| Time | 2026-05-06 15:01 |
|---|---|
| Airport | Munich Airport (EDDM) |
Arrival
| Time | 2026-05-06 16:37 |
|---|---|
| Airport | London Stansted Airport (EGSS) |
| Time | Latitude | Longitude | Altitude | Speed | Heading |
|---|---|---|---|---|---|
| 2026-05-06 14:41 | 48.35694 | 11.77615 | 1485 ft | 0 kts | 263° |
| 2026-05-06 14:53 | 48.35694 | 11.77617 | 1485 ft | 3 kts | 263° |
| 2026-05-06 14:53 | 48.35697 | 11.77647 | 1476 ft | 3 kts | 263° |
| 2026-05-06 14:54 | 48.35699 | 11.77678 | 1476 ft | 3 kts | 269° |
| 2026-05-06 14:54 | 48.35695 | 11.77708 | 1474 ft | 3 kts | 312° |
| 2026-05-06 14:54 | 48.35679 | 11.77724 | 1474 ft | 0 kts | 352° |
| 2026-05-06 14:56 | 48.35689 | 11.77723 | 1473 ft | 3 kts | 353° |
| 2026-05-06 14:56 | 48.35727 | 11.77715 | 1479 ft | 8 kts | 353° |
| 2026-05-06 14:56 | 48.35750 | 11.77711 | 1485 ft | 0 kts | 355° |
| 2026-05-06 14:56 | 48.35768 | 11.77709 | 1480 ft | 5 kts | 354° |
| 2026-05-06 14:57 | 48.35786 | 11.77706 | 1480 ft | 3 kts | 353° |
| 2026-05-06 14:57 | 48.35821 | 11.77700 | 1476 ft | 7 kts | 353° |
| 2026-05-06 14:57 | 48.35887 | 11.77688 | 1474 ft | 12 kts | 353° |
| 2026-05-06 14:57 | 48.35951 | 11.77605 | 1480 ft | 16 kts | 280° |
| 2026-05-06 14:58 | 48.35947 | 11.77417 | 1473 ft | 20 kts | 264° |
| 2026-05-06 14:58 | 48.35928 | 11.77186 | 1485 ft | 23 kts | 261° |
| 2026-05-06 14:58 | 48.35967 | 11.77003 | 1484 ft | 14 kts | 287° |
| 2026-05-06 14:58 | 48.36004 | 11.76854 | 1478 ft | 16 kts | 305° |
| 2026-05-06 14:59 | 48.36109 | 11.76805 | 1480 ft | 17 kts | 355° |
| 2026-05-06 14:59 | 48.36211 | 11.76805 | 1485 ft | 14 kts | 13° |
| 2026-05-06 14:59 | 48.36281 | 11.76889 | 1478 ft | 13 kts | 65° |
| 2026-05-06 14:59 | 48.36289 | 11.76930 | 1482 ft | 0 kts | 76° |
| 2026-05-06 15:00 | 48.36290 | 11.76936 | 1483 ft | 4 kts | 76° |
| 2026-05-06 15:00 | 48.36332 | 11.77317 | 1485 ft | 77 kts | 84° |
| 2026-05-06 15:00 | 48.36411 | 11.78471 | 1477 ft | 142 kts | 84° |
| 2026-05-06 15:01 | 48.36559 | 11.80197 | 1576 ft | 180 kts | 82° |
| 2026-05-06 15:01 | 48.36697 | 11.82073 | 2458 ft | 177 kts | 83° |
| 2026-05-06 15:01 | 48.36832 | 11.83921 | 3142 ft | 188 kts | 83° |
| 2026-05-06 15:01 | 48.37214 | 11.85924 | 3522 ft | 211 kts | 57° |
| 2026-05-06 15:02 | 48.38391 | 11.87317 | 3932 ft | 234 kts | 19° |
| 2026-05-06 15:02 | 48.40081 | 11.87343 | 4579 ft | 248 kts | 351° |
| 2026-05-06 15:02 | 48.41726 | 11.86472 | 5377 ft | 256 kts | 327° |
| 2026-05-06 15:02 | 48.43008 | 11.84587 | 6216 ft | 261 kts | 308° |
| 2026-05-06 15:03 | 48.44161 | 11.82464 | 7081 ft | 264 kts | 308° |
| 2026-05-06 15:03 | 48.45383 | 11.80269 | 7680 ft | 282 kts | 308° |
| 2026-05-06 15:03 | 48.46672 | 11.77984 | 8520 ft | 289 kts | 308° |
| 2026-05-06 15:03 | 48.47987 | 11.75668 | 9469 ft | 293 kts | 308° |
| 2026-05-06 15:04 | 48.49320 | 11.73320 | 10183 ft | 305 kts | 308° |
| 2026-05-06 15:04 | 48.50761 | 11.70776 | 10549 ft | 329 kts | 308° |
| 2026-05-06 15:04 | 48.52287 | 11.68080 | 11114 ft | 343 kts | 307° |
| 2026-05-06 15:04 | 48.53849 | 11.65328 | 11948 ft | 347 kts | 307° |
| 2026-05-06 15:05 | 48.55425 | 11.62555 | 12793 ft | 350 kts | 307° |
| 2026-05-06 15:05 | 48.57017 | 11.59752 | 13670 ft | 353 kts | 306° |
| 2026-05-06 15:05 | 48.58624 | 11.56913 | 14386 ft | 357 kts | 306° |
| 2026-05-06 15:05 | 48.60241 | 11.54045 | 15067 ft | 361 kts | 306° |
| 2026-05-06 15:06 | 48.61878 | 11.51139 | 15754 ft | 365 kts | 306° |
| 2026-05-06 15:06 | 48.63535 | 11.48200 | 16485 ft | 370 kts | 306° |
| 2026-05-06 15:06 | 48.65216 | 11.45212 | 17191 ft | 375 kts | 306° |
| 2026-05-06 15:06 | 48.66907 | 11.42197 | 17847 ft | 379 kts | 305° |
| 2026-05-06 15:07 | 48.68622 | 11.39134 | 18445 ft | 382 kts | 305° |
| 2026-05-06 15:07 | 48.70503 | 11.36239 | 18993 ft | 392 kts | 315° |
| 2026-05-06 15:07 | 48.72735 | 11.33798 | 19554 ft | 399 kts | 322° |
| 2026-05-06 15:07 | 48.75058 | 11.31459 | 20109 ft | 402 kts | 322° |
| 2026-05-06 15:08 | 48.77401 | 11.29093 | 20682 ft | 406 kts | 322° |
| 2026-05-06 15:08 | 48.79762 | 11.26709 | 21213 ft | 409 kts | 322° |
| 2026-05-06 15:08 | 48.82137 | 11.24309 | 21768 ft | 413 kts | 321° |
| 2026-05-06 15:08 | 48.84635 | 11.22084 | 22289 ft | 421 kts | 330° |
| 2026-05-06 15:09 | 48.87387 | 11.20445 | 22852 ft | 428 kts | 338° |
| 2026-05-06 15:09 | 48.90228 | 11.19011 | 23394 ft | 431 kts | 338° |
| 2026-05-06 15:09 | 48.93090 | 11.17566 | 23843 ft | 435 kts | 338° |
| 2026-05-06 15:09 | 48.95971 | 11.16107 | 24282 ft | 437 kts | 337° |
| 2026-05-06 15:10 | 48.98865 | 11.14638 | 24725 ft | 440 kts | 337° |
| 2026-05-06 15:10 | 49.01780 | 11.13154 | 25132 ft | 443 kts | 337° |
| 2026-05-06 15:10 | 49.04709 | 11.11659 | 25541 ft | 445 kts | 337° |
| 2026-05-06 15:10 | 49.07657 | 11.10149 | 25954 ft | 448 kts | 337° |
| 2026-05-06 15:11 | 49.10618 | 11.08633 | 26366 ft | 450 kts | 337° |
| 2026-05-06 15:11 | 49.13599 | 11.07111 | 26788 ft | 452 kts | 336° |
| 2026-05-06 15:11 | 49.16589 | 11.05586 | 27195 ft | 455 kts | 336° |
| 2026-05-06 15:11 | 49.19598 | 11.04052 | 27613 ft | 457 kts | 336° |
| 2026-05-06 15:12 | 49.22618 | 11.02506 | 28013 ft | 460 kts | 336° |
| 2026-05-06 15:12 | 49.25658 | 11.00940 | 28394 ft | 462 kts | 336° |
| 2026-05-06 15:12 | 49.28721 | 10.99356 | 28775 ft | 464 kts | 336° |
| 2026-05-06 15:12 | 49.31788 | 10.97766 | 29147 ft | 467 kts | 336° |
| 2026-05-06 15:13 | 49.34869 | 10.96170 | 29503 ft | 469 kts | 336° |
| 2026-05-06 15:13 | 49.37959 | 10.94357 | 29838 ft | 467 kts | 329° |
| 2026-05-06 15:13 | 49.40788 | 10.91981 | 30119 ft | 463 kts | 321° |
| 2026-05-06 15:13 | 49.43409 | 10.89212 | 30387 ft | 463 kts | 319° |
| 2026-05-06 15:14 | 49.46087 | 10.86342 | 30676 ft | 465 kts | 319° |
| 2026-05-06 15:14 | 49.48752 | 10.83484 | 30949 ft | 467 kts | 319° |
| 2026-05-06 15:14 | 49.51421 | 10.80626 | 31251 ft | 468 kts | 320° |
| 2026-05-06 15:14 | 49.54093 | 10.77774 | 31661 ft | 467 kts | 320° |
| 2026-05-06 15:15 | 49.56774 | 10.74917 | 32077 ft | 466 kts | 319° |
| 2026-05-06 15:15 | 49.59435 | 10.72078 | 32481 ft | 465 kts | 319° |
| 2026-05-06 15:15 | 49.62082 | 10.69248 | 32884 ft | 463 kts | 319° |
| 2026-05-06 15:15 | 49.63839 | 10.67366 | 33142 ft | 463 kts | 319° |
| 2026-05-06 15:16 | 49.66480 | 10.64535 | 33546 ft | 462 kts | 319° |
| 2026-05-06 15:16 | 49.69113 | 10.61709 | 33918 ft | 461 kts | 319° |
| 2026-05-06 15:16 | 49.71739 | 10.58880 | 34236 ft | 460 kts | 319° |
| 2026-05-06 15:16 | 49.74362 | 10.56047 | 34535 ft | 460 kts | 319° |
| 2026-05-06 15:17 | 49.77026 | 10.53283 | 34815 ft | 462 kts | 321° |
| 2026-05-06 15:17 | 49.79748 | 10.50629 | 35078 ft | 463 kts | 323° |
| 2026-05-06 15:17 | 49.82507 | 10.48046 | 35391 ft | 464 kts | 323° |
| 2026-05-06 15:17 | 49.85286 | 10.45480 | 35690 ft | 464 kts | 324° |
| 2026-05-06 15:18 | 49.88051 | 10.42917 | 35962 ft | 464 kts | 324° |
| 2026-05-06 15:18 | 49.90817 | 10.40322 | 36229 ft | 464 kts | 324° |
| 2026-05-06 15:18 | 49.93564 | 10.37711 | 36481 ft | 463 kts | 324° |
| 2026-05-06 15:18 | 49.96303 | 10.35073 | 36746 ft | 463 kts | 323° |
| 2026-05-06 15:19 | 49.99031 | 10.32426 | 36993 ft | 463 kts | 324° |
| 2026-05-06 15:19 | 50.01760 | 10.29774 | 37232 ft | 463 kts | 324° |
| 2026-05-06 15:19 | 50.04494 | 10.27125 | 37487 ft | 463 kts | 324° |
| 2026-05-06 15:19 | 50.07272 | 10.24441 | 37709 ft | 463 kts | 324° |
| 2026-05-06 15:20 | 50.10013 | 10.21791 | 37767 ft | 463 kts | 324° |
| 2026-05-06 15:20 | 50.15443 | 10.16525 | 37760 ft | 463 kts | 324° |
| 2026-05-06 15:21 | 50.20945 | 10.11170 | 37756 ft | 463 kts | 324° |
| 2026-05-06 15:21 | 50.26405 | 10.05835 | 37759 ft | 463 kts | 324° |
| 2026-05-06 15:22 | 50.31874 | 10.00485 | 37759 ft | 464 kts | 324° |
| 2026-05-06 15:22 | 50.37341 | 9.95133 | 37762 ft | 464 kts | 324° |
| 2026-05-06 15:23 | 50.42807 | 9.89753 | 37759 ft | 464 kts | 324° |
| 2026-05-06 15:23 | 50.48274 | 9.84357 | 37762 ft | 464 kts | 324° |
| 2026-05-06 15:24 | 50.53744 | 9.78946 | 37765 ft | 465 kts | 324° |
| 2026-05-06 15:24 | 50.59218 | 9.73513 | 37770 ft | 465 kts | 324° |
| 2026-05-06 15:25 | 50.64691 | 9.68056 | 37776 ft | 466 kts | 324° |
| 2026-05-06 15:25 | 50.69965 | 9.62214 | 37775 ft | 460 kts | 313° |
| 2026-05-06 15:26 | 50.73873 | 9.54405 | 37774 ft | 449 kts | 294° |
| 2026-05-06 15:26 | 50.76223 | 9.45358 | 37773 ft | 444 kts | 286° |
| 2026-05-06 15:27 | 50.78321 | 9.36170 | 37777 ft | 445 kts | 286° |
| 2026-05-06 15:27 | 50.80409 | 9.26950 | 37782 ft | 445 kts | 286° |
| 2026-05-06 15:28 | 50.82483 | 9.17740 | 37784 ft | 446 kts | 286° |
| 2026-05-06 15:28 | 50.84558 | 9.08476 | 37792 ft | 446 kts | 286° |
| 2026-05-06 15:29 | 50.86626 | 8.99217 | 37798 ft | 446 kts | 286° |
| 2026-05-06 15:29 | 50.88705 | 8.89880 | 37793 ft | 447 kts | 286° |
| 2026-05-06 15:30 | 50.90769 | 8.80598 | 37793 ft | 446 kts | 286° |
| 2026-05-06 15:30 | 50.92815 | 8.71320 | 37802 ft | 447 kts | 285° |
| 2026-05-06 15:31 | 50.94854 | 8.62004 | 37796 ft | 446 kts | 285° |
| 2026-05-06 15:31 | 50.96878 | 8.52741 | 37781 ft | 438 kts | 285° |
| 2026-05-06 15:32 | 50.98806 | 8.43927 | 37788 ft | 408 kts | 285° |
| 2026-05-06 15:32 | 50.99717 | 8.39746 | 37790 ft | 393 kts | 285° |
| 2026-05-06 15:32 | 51.00588 | 8.35719 | 37796 ft | 379 kts | 284° |
| 2026-05-06 15:32 | 51.01429 | 8.31822 | 37797 ft | 369 kts | 284° |
| 2026-05-06 15:33 | 51.03049 | 8.24160 | 37802 ft | 364 kts | 284° |
| 2026-05-06 15:33 | 51.04635 | 8.16532 | 37806 ft | 363 kts | 284° |
| 2026-05-06 15:34 | 51.06225 | 8.08911 | 37809 ft | 363 kts | 284° |
| 2026-05-06 15:34 | 51.07814 | 8.01293 | 37816 ft | 363 kts | 284° |
| 2026-05-06 15:35 | 51.09386 | 7.93688 | 37816 ft | 362 kts | 284° |
| 2026-05-06 15:35 | 51.10962 | 7.86053 | 37824 ft | 362 kts | 284° |
| 2026-05-06 15:36 | 51.12531 | 7.78438 | 37821 ft | 362 kts | 284° |
| 2026-05-06 15:36 | 51.14095 | 7.70817 | 37823 ft | 362 kts | 284° |
| 2026-05-06 15:37 | 51.15645 | 7.63198 | 37836 ft | 362 kts | 284° |
| 2026-05-06 15:37 | 51.17204 | 7.55533 | 37829 ft | 362 kts | 284° |
| 2026-05-06 15:38 | 51.18755 | 7.47901 | 37839 ft | 362 kts | 284° |
| 2026-05-06 15:38 | 51.20296 | 7.40279 | 37846 ft | 362 kts | 284° |
| 2026-05-06 15:39 | 51.21833 | 7.32643 | 37854 ft | 362 kts | 284° |
| 2026-05-06 15:39 | 51.23361 | 7.24999 | 37854 ft | 362 kts | 284° |
| 2026-05-06 15:40 | 51.24883 | 7.17362 | 37852 ft | 362 kts | 284° |
| 2026-05-06 15:40 | 51.26411 | 7.09691 | 37868 ft | 362 kts | 284° |
| 2026-05-06 15:41 | 51.27930 | 7.02025 | 37861 ft | 362 kts | 284° |
| 2026-05-06 15:41 | 51.29441 | 6.94347 | 37861 ft | 362 kts | 284° |
| 2026-05-06 15:42 | 51.30952 | 6.86669 | 37873 ft | 362 kts | 284° |
| 2026-05-06 15:42 | 51.32457 | 6.78981 | 37866 ft | 363 kts | 284° |
| 2026-05-06 15:43 | 51.33957 | 6.71287 | 37868 ft | 362 kts | 284° |
| 2026-05-06 15:43 | 51.35453 | 6.63587 | 37864 ft | 362 kts | 284° |
| 2026-05-06 15:44 | 51.36944 | 6.55884 | 37867 ft | 362 kts | 284° |
| 2026-05-06 15:44 | 51.38421 | 6.48172 | 37871 ft | 362 kts | 284° |
| 2026-05-06 15:45 | 51.39905 | 6.40408 | 37872 ft | 362 kts | 284° |
| 2026-05-06 15:45 | 51.41380 | 6.32695 | 37871 ft | 362 kts | 284° |
| 2026-05-06 15:46 | 51.42848 | 6.24974 | 37886 ft | 362 kts | 284° |
| 2026-05-06 15:46 | 51.44307 | 6.17253 | 37889 ft | 362 kts | 284° |
| 2026-05-06 15:47 | 51.45761 | 6.09532 | 37894 ft | 362 kts | 284° |
| 2026-05-06 15:47 | 51.47216 | 6.01814 | 37890 ft | 362 kts | 284° |
| 2026-05-06 15:48 | 51.48662 | 5.94093 | 37891 ft | 361 kts | 283° |
| 2026-05-06 15:48 | 51.50100 | 5.86370 | 37890 ft | 361 kts | 283° |
| 2026-05-06 15:49 | 51.51290 | 5.79947 | 37892 ft | 361 kts | 283° |
| 2026-05-06 15:49 | 51.52714 | 5.72231 | 37893 ft | 361 kts | 283° |
| 2026-05-06 15:50 | 51.54146 | 5.64450 | 37893 ft | 360 kts | 283° |
| 2026-05-06 15:50 | 51.55564 | 5.56730 | 37896 ft | 360 kts | 284° |
| 2026-05-06 15:51 | 51.56980 | 5.49010 | 37894 ft | 360 kts | 284° |
| 2026-05-06 15:51 | 51.58383 | 5.41303 | 37893 ft | 358 kts | 283° |
| 2026-05-06 15:52 | 51.59775 | 5.33613 | 37894 ft | 358 kts | 283° |
| 2026-05-06 15:52 | 51.61155 | 5.25934 | 37894 ft | 358 kts | 283° |
| 2026-05-06 15:53 | 51.62552 | 5.18127 | 37915 ft | 370 kts | 283° |
| 2026-05-06 15:53 | 51.64003 | 5.10006 | 37920 ft | 385 kts | 284° |
| 2026-05-06 15:54 | 51.65502 | 5.01567 | 37915 ft | 399 kts | 284° |
| 2026-05-06 15:54 | 51.67043 | 4.92839 | 37917 ft | 412 kts | 284° |
| 2026-05-06 15:55 | 51.68633 | 4.83815 | 37916 ft | 425 kts | 284° |
| 2026-05-06 15:55 | 51.70265 | 4.74532 | 37911 ft | 436 kts | 284° |
| 2026-05-06 15:56 | 51.71932 | 4.64988 | 37902 ft | 447 kts | 284° |
| 2026-05-06 15:56 | 51.73628 | 4.55231 | 37905 ft | 454 kts | 284° |
| 2026-05-06 15:57 | 51.75314 | 4.45409 | 37905 ft | 455 kts | 283° |
| 2026-05-06 15:57 | 51.76999 | 4.35567 | 37910 ft | 455 kts | 283° |
| 2026-05-06 15:58 | 51.78692 | 4.25660 | 37907 ft | 455 kts | 283° |
| 2026-05-06 15:58 | 51.80355 | 4.15880 | 37913 ft | 455 kts | 283° |
| 2026-05-06 15:59 | 51.82032 | 4.05951 | 37901 ft | 455 kts | 283° |
| 2026-05-06 15:59 | 51.83683 | 3.96103 | 37917 ft | 454 kts | 283° |
| 2026-05-06 16:00 | 51.85324 | 3.86242 | 37909 ft | 453 kts | 283° |
| 2026-05-06 16:00 | 51.86954 | 3.76399 | 37906 ft | 453 kts | 283° |
| 2026-05-06 16:01 | 51.88569 | 3.66558 | 37918 ft | 453 kts | 283° |
| 2026-05-06 16:01 | 51.90178 | 3.56699 | 37916 ft | 453 kts | 283° |
| 2026-05-06 16:02 | 51.91782 | 3.46850 | 37656 ft | 451 kts | 283° |
| 2026-05-06 16:02 | 51.92579 | 3.41948 | 37154 ft | 445 kts | 283° |
| 2026-05-06 16:02 | 51.93357 | 3.37169 | 37036 ft | 432 kts | 283° |
| 2026-05-06 16:03 | 51.94110 | 3.32526 | 36889 ft | 419 kts | 283° |
| 2026-05-06 16:03 | 51.94834 | 3.28020 | 36761 ft | 407 kts | 283° |
| 2026-05-06 16:03 | 51.95534 | 3.23651 | 36627 ft | 395 kts | 283° |
| 2026-05-06 16:03 | 51.96103 | 3.19357 | 36491 ft | 383 kts | 276° |
| 2026-05-06 16:04 | 51.96306 | 3.15130 | 36361 ft | 370 kts | 269° |
| 2026-05-06 16:04 | 51.96174 | 3.11029 | 36237 ft | 359 kts | 263° |
| 2026-05-06 16:04 | 51.95914 | 3.07067 | 36109 ft | 348 kts | 263° |
| 2026-05-06 16:04 | 51.95664 | 3.03222 | 35975 ft | 338 kts | 263° |
| 2026-05-06 16:05 | 51.95417 | 2.99469 | 35735 ft | 332 kts | 263° |
| 2026-05-06 16:05 | 51.95174 | 2.95779 | 35443 ft | 327 kts | 263° |
| 2026-05-06 16:05 | 51.94930 | 2.92131 | 35129 ft | 324 kts | 263° |
| 2026-05-06 16:05 | 51.94688 | 2.88526 | 34796 ft | 321 kts | 263° |
| 2026-05-06 16:06 | 51.94448 | 2.84944 | 34483 ft | 317 kts | 263° |
| 2026-05-06 16:06 | 51.94211 | 2.81401 | 34155 ft | 315 kts | 263° |
| 2026-05-06 16:06 | 51.93978 | 2.77893 | 33821 ft | 312 kts | 263° |
| 2026-05-06 16:06 | 51.93744 | 2.74411 | 33447 ft | 309 kts | 263° |
| 2026-05-06 16:07 | 51.93510 | 2.70918 | 33072 ft | 306 kts | 263° |
| 2026-05-06 16:07 | 51.93279 | 2.67496 | 32695 ft | 304 kts | 263° |
| 2026-05-06 16:07 | 51.93048 | 2.64107 | 32329 ft | 301 kts | 263° |
| 2026-05-06 16:07 | 51.92818 | 2.60743 | 31982 ft | 299 kts | 262° |
| 2026-05-06 16:08 | 51.92588 | 2.57404 | 31600 ft | 297 kts | 262° |
| 2026-05-06 16:08 | 51.92361 | 2.54097 | 31268 ft | 295 kts | 262° |
| 2026-05-06 16:08 | 51.92134 | 2.50810 | 30915 ft | 293 kts | 262° |
| 2026-05-06 16:08 | 51.91906 | 2.47542 | 30579 ft | 290 kts | 262° |
| 2026-05-06 16:09 | 51.91680 | 2.44310 | 30252 ft | 288 kts | 262° |
| 2026-05-06 16:09 | 51.91449 | 2.41070 | 29738 ft | 292 kts | 261° |
| 2026-05-06 16:09 | 51.91210 | 2.37768 | 29109 ft | 298 kts | 262° |
| 2026-05-06 16:09 | 51.90970 | 2.34409 | 28486 ft | 303 kts | 262° |
| 2026-05-06 16:10 | 51.90748 | 2.30987 | 27884 ft | 308 kts | 264° |
| 2026-05-06 16:10 | 51.90621 | 2.27507 | 27293 ft | 312 kts | 266° |
| 2026-05-06 16:10 | 51.90550 | 2.23963 | 26717 ft | 316 kts | 267° |
| 2026-05-06 16:10 | 51.90497 | 2.20386 | 26154 ft | 320 kts | 267° |
| 2026-05-06 16:11 | 51.90440 | 2.16771 | 25595 ft | 323 kts | 267° |
| 2026-05-06 16:11 | 51.90375 | 2.13123 | 25047 ft | 325 kts | 267° |
| 2026-05-06 16:11 | 51.90301 | 2.09459 | 24513 ft | 327 kts | 267° |
| 2026-05-06 16:11 | 51.90217 | 2.05758 | 23991 ft | 329 kts | 267° |
| 2026-05-06 16:12 | 51.90124 | 2.02049 | 23465 ft | 331 kts | 267° |
| 2026-05-06 16:12 | 51.90027 | 1.98320 | 22852 ft | 333 kts | 267° |
| 2026-05-06 16:12 | 51.89929 | 1.94560 | 22251 ft | 335 kts | 267° |
| 2026-05-06 16:12 | 51.90017 | 1.90786 | 21659 ft | 337 kts | 277° |
| 2026-05-06 16:13 | 51.90512 | 1.87097 | 21085 ft | 339 kts | 287° |
| 2026-05-06 16:13 | 51.91425 | 1.83532 | 20512 ft | 342 kts | 297° |
| 2026-05-06 16:13 | 51.92565 | 1.80143 | 19971 ft | 343 kts | 297° |
| 2026-05-06 16:13 | 51.93714 | 1.76695 | 19402 ft | 344 kts | 297° |
| 2026-05-06 16:14 | 51.94665 | 1.73811 | 18959 ft | 345 kts | 297° |
| 2026-05-06 16:14 | 51.95779 | 1.70420 | 18433 ft | 346 kts | 297° |
| 2026-05-06 16:14 | 51.96923 | 1.66934 | 17850 ft | 346 kts | 297° |
| 2026-05-06 16:14 | 51.98056 | 1.63484 | 17256 ft | 347 kts | 297° |
| 2026-05-06 16:15 | 51.99188 | 1.60032 | 16670 ft | 347 kts | 297° |
| 2026-05-06 16:15 | 52.00320 | 1.56573 | 16100 ft | 347 kts | 297° |
| 2026-05-06 16:15 | 52.01180 | 1.53944 | 15669 ft | 348 kts | 297° |
| 2026-05-06 16:15 | 52.02312 | 1.50482 | 15111 ft | 347 kts | 297° |
| 2026-05-06 16:16 | 52.03443 | 1.47014 | 14563 ft | 347 kts | 297° |
| 2026-05-06 16:16 | 52.04571 | 1.43551 | 14029 ft | 346 kts | 297° |
| 2026-05-06 16:16 | 52.05693 | 1.40096 | 13465 ft | 345 kts | 297° |
| 2026-05-06 16:16 | 52.06814 | 1.36644 | 12888 ft | 344 kts | 297° |
| 2026-05-06 16:17 | 52.07923 | 1.33219 | 12296 ft | 342 kts | 297° |
| 2026-05-06 16:17 | 52.09030 | 1.29804 | 11737 ft | 340 kts | 297° |
| 2026-05-06 16:17 | 52.10127 | 1.26417 | 11187 ft | 338 kts | 297° |
| 2026-05-06 16:17 | 52.11063 | 1.22991 | 10959 ft | 325 kts | 286° |
| 2026-05-06 16:18 | 52.11357 | 1.19463 | 10956 ft | 309 kts | 270° |
| 2026-05-06 16:18 | 52.11053 | 1.16074 | 10844 ft | 298 kts | 256° |
| 2026-05-06 16:18 | 52.10518 | 1.12883 | 10718 ft | 287 kts | 256° |
| 2026-05-06 16:18 | 52.10006 | 1.09810 | 10586 ft | 277 kts | 256° |
| 2026-05-06 16:19 | 52.09511 | 1.06835 | 10471 ft | 267 kts | 256° |
| 2026-05-06 16:19 | 52.09033 | 1.03966 | 10348 ft | 258 kts | 256° |
| 2026-05-06 16:19 | 52.08570 | 1.01189 | 10228 ft | 250 kts | 256° |
| 2026-05-06 16:19 | 52.08124 | 0.98514 | 10102 ft | 242 kts | 256° |
| 2026-05-06 16:20 | 52.07690 | 0.95914 | 9978 ft | 234 kts | 257° |
| 2026-05-06 16:20 | 52.07270 | 0.93396 | 9859 ft | 226 kts | 256° |
| 2026-05-06 16:20 | 52.06864 | 0.90972 | 9720 ft | 218 kts | 256° |
| 2026-05-06 16:20 | 52.06471 | 0.88644 | 9581 ft | 210 kts | 256° |
| 2026-05-06 16:21 | 52.06092 | 0.86398 | 9393 ft | 204 kts | 256° |
| 2026-05-06 16:21 | 52.05718 | 0.84180 | 9124 ft | 202 kts | 256° |
| 2026-05-06 16:21 | 52.05349 | 0.81981 | 8848 ft | 201 kts | 256° |
| 2026-05-06 16:21 | 52.04978 | 0.79787 | 8557 ft | 201 kts | 256° |
| 2026-05-06 16:22 | 52.04608 | 0.77591 | 8265 ft | 201 kts | 256° |
| 2026-05-06 16:22 | 52.04238 | 0.75405 | 7990 ft | 200 kts | 257° |
| 2026-05-06 16:22 | 52.03988 | 0.73932 | 7814 ft | 200 kts | 256° |
| 2026-05-06 16:22 | 52.03619 | 0.71760 | 7544 ft | 200 kts | 256° |
| 2026-05-06 16:23 | 52.03247 | 0.69579 | 7264 ft | 200 kts | 256° |
| 2026-05-06 16:23 | 52.02876 | 0.67402 | 6999 ft | 200 kts | 256° |
| 2026-05-06 16:23 | 52.02505 | 0.65228 | 6759 ft | 200 kts | 256° |
| 2026-05-06 16:23 | 52.02134 | 0.63055 | 6512 ft | 200 kts | 256° |
| 2026-05-06 16:24 | 52.01760 | 0.60877 | 6260 ft | 200 kts | 257° |
| 2026-05-06 16:24 | 52.01542 | 0.58663 | 6044 ft | 198 kts | 269° |
| 2026-05-06 16:24 | 52.01453 | 0.56439 | 5979 ft | 198 kts | 268° |
| 2026-05-06 16:24 | 52.01352 | 0.54207 | 5991 ft | 199 kts | 268° |
| 2026-05-06 16:25 | 52.01249 | 0.51963 | 5994 ft | 199 kts | 268° |
| 2026-05-06 16:25 | 52.01146 | 0.49723 | 5997 ft | 199 kts | 268° |
| 2026-05-06 16:25 | 52.01042 | 0.47492 | 5997 ft | 199 kts | 267° |
| 2026-05-06 16:25 | 52.00938 | 0.45252 | 5995 ft | 199 kts | 268° |
| 2026-05-06 16:26 | 52.00833 | 0.43017 | 5998 ft | 199 kts | 268° |
| 2026-05-06 16:26 | 52.00727 | 0.40778 | 6001 ft | 199 kts | 268° |
| 2026-05-06 16:26 | 52.00622 | 0.38536 | 5996 ft | 199 kts | 268° |
| 2026-05-06 16:26 | 52.00516 | 0.36300 | 5997 ft | 199 kts | 267° |
| 2026-05-06 16:27 | 52.00410 | 0.34062 | 6002 ft | 199 kts | 268° |
| 2026-05-06 16:27 | 52.00306 | 0.31821 | 6001 ft | 199 kts | 267° |
| 2026-05-06 16:27 | 52.00161 | 0.29588 | 5999 ft | 200 kts | 259° |
| 2026-05-06 16:27 | 51.99702 | 0.27461 | 6000 ft | 201 kts | 243° |
| 2026-05-06 16:28 | 51.98898 | 0.25571 | 6003 ft | 202 kts | 227° |
| 2026-05-06 16:28 | 51.97876 | 0.24000 | 6004 ft | 202 kts | 223° |
| 2026-05-06 16:28 | 51.96846 | 0.22442 | 6002 ft | 202 kts | 224° |
| 2026-05-06 16:28 | 51.95825 | 0.20889 | 5932 ft | 201 kts | 224° |
| 2026-05-06 16:29 | 51.94807 | 0.19336 | 5659 ft | 201 kts | 224° |
| 2026-05-06 16:29 | 51.93793 | 0.17787 | 5406 ft | 200 kts | 224° |
| 2026-05-06 16:29 | 51.92778 | 0.16241 | 5150 ft | 200 kts | 224° |
| 2026-05-06 16:29 | 51.91778 | 0.14720 | 4914 ft | 199 kts | 224° |
| 2026-05-06 16:30 | 51.90759 | 0.13172 | 4668 ft | 198 kts | 224° |
| 2026-05-06 16:30 | 51.90097 | 0.12166 | 4485 ft | 197 kts | 224° |
| 2026-05-06 16:30 | 51.88756 | 0.10131 | 4143 ft | 198 kts | 224° |
| 2026-05-06 16:30 | 51.87752 | 0.08611 | 3889 ft | 198 kts | 224° |
| 2026-05-06 16:31 | 51.86748 | 0.07094 | 3623 ft | 198 kts | 225° |
| 2026-05-06 16:31 | 51.85748 | 0.05582 | 3395 ft | 197 kts | 225° |
| 2026-05-06 16:31 | 51.84745 | 0.04068 | 3151 ft | 196 kts | 225° |
| 2026-05-06 16:31 | 51.83750 | 0.02562 | 2916 ft | 196 kts | 225° |
| 2026-05-06 16:32 | 51.82956 | 0.01388 | 2712 ft | 196 kts | 218° |
| 2026-05-06 16:32 | 51.81703 | 0.00580 | 2540 ft | 195 kts | 184° |
| 2026-05-06 16:32 | 51.80405 | 0.00872 | 2499 ft | 185 kts | 155° |
| 2026-05-06 16:32 | 51.79432 | 0.01939 | 2526 ft | 177 kts | 129° |
| 2026-05-06 16:33 | 51.78715 | 0.03432 | 2518 ft | 176 kts | 123° |
| 2026-05-06 16:33 | 51.78008 | 0.05026 | 2503 ft | 174 kts | 112° |
| 2026-05-06 16:33 | 51.77865 | 0.06869 | 2511 ft | 166 kts | 72° |
| 2026-05-06 16:34 | 51.79237 | 0.09629 | 2509 ft | 160 kts | 41° |
| 2026-05-06 16:34 | 51.80058 | 0.10853 | 2418 ft | 161 kts | 40° |
| 2026-05-06 16:34 | 51.80876 | 0.12075 | 2247 ft | 159 kts | 40° |
| 2026-05-06 16:34 | 51.81663 | 0.13251 | 2064 ft | 148 kts | 41° |
| 2026-05-06 16:35 | 51.82392 | 0.14340 | 1860 ft | 139 kts | 40° |
| 2026-05-06 16:35 | 51.83079 | 0.15366 | 1675 ft | 130 kts | 40° |
| 2026-05-06 16:35 | 51.83728 | 0.16337 | 1502 ft | 124 kts | 41° |
| 2026-05-06 16:35 | 51.84355 | 0.17274 | 1331 ft | 122 kts | 40° |
| 2026-05-06 16:36 | 51.84978 | 0.18204 | 1135 ft | 122 kts | 42° |
| 2026-05-06 16:36 | 51.85589 | 0.19119 | 986 ft | 117 kts | 39° |
| 2026-05-06 16:36 | 51.86137 | 0.19939 | 810 ft | 116 kts | 41° |
| 2026-05-06 16:36 | 51.86720 | 0.20811 | 666 ft | 116 kts | 42° |
| 2026-05-06 16:37 | 51.87309 | 0.21693 | 504 ft | 115 kts | 41° |
| 2026-05-06 16:37 | 51.87939 | 0.22630 | 411 ft | 138 kts | 41° |
| 2026-05-06 16:37 | 51.88608 | 0.23631 | 355 ft | 114 kts | 42° |
| 2026-05-06 16:37 | 51.88862 | 0.24010 | 352 ft | 8 kts | 69° |
| 2026-05-06 16:38 | 51.88875 | 0.24132 | 359 ft | 14 kts | 82° |
| 2026-05-06 16:38 | 51.88913 | 0.24322 | 355 ft | 20 kts | 73° |
| 2026-05-06 16:38 | 51.88923 | 0.24560 | 360 ft | 22 kts | 64° |
| 2026-05-06 16:38 | 51.89014 | 0.24735 | 359 ft | 18 kts | 54° |
| 2026-05-06 16:39 | 51.88981 | 0.24926 | 358 ft | 20 kts | 128° |
| 2026-05-06 16:39 | 51.88928 | 0.25142 | 361 ft | 22 kts | 117° |
| 2026-05-06 16:39 | 51.88909 | 0.25237 | 355 ft | 6 kts | 66° |
| 2026-05-06 16:39 | 51.88914 | 0.25246 | 355 ft | 1 kts | 48° |
| 2026-05-06 16:40 | 51.88916 | 0.25250 | 355 ft | 0 kts | 46° |